Aegean III — SXHY — position and weather

sailwx.info

Track history (hours):
 
Tides and Currents Weather Stations Pressure Air Temp Water Temp Dewpoint Dewpoint Depression Visibility Wind Speed Wind Dir Waves Ship Positions

Aegean III

Last reported at 2018-Jan-19 00:59 UTC. Time now 2018-Jan-22 18:26 UTC.
Position N 38°06' E 022°41'.

Length 80 m; draft 5.6 m.

Type: Tanker. MMSI: 240708000.

Date/timePositionNaut miles runAvg speedWind from/ knotsBaromVisibWave heightAir tempDewpointWater temp
2018-Jan-19 00:59N 38°06' E 022°41'4 7.6
2018-Jan-19 00:30N 38°04' E 022°45'4 8.2
2018-Jan-19 00:00N 38°01' E 022°49'4 8.3
2018-Jan-18 23:30N 37°59' E 022°54'4 7.6
2018-Jan-18 23:00N 37°57' E 022°58'2 4.5
2018-Jan-18 22:29N 37°55' E 023°00'3 5.4
2018-Jan-18 22:00N 37°54' E 023°03'4 8.4
2018-Jan-18 21:30N 37°54' E 023°08'4 8.5
2018-Jan-18 21:00N 37°55' E 023°13'4 8.6
2018-Jan-18 20:30N 37°56' E 023°19'4 8.4
2018-Jan-18 20:00N 37°57' E 023°24'3 6.1
2018-Jan-18 19:30N 37°60' E 023°25'4 8.7
2018-Jan-18 19:00N 38°02' E 023°30'1 2.3
2018-Jan-18 18:24N 38°02' E 023°32'0 0.0
2018-Jan-18 18:00N 38°02' E 023°32'0 0.0
2018-Jan-18 17:30N 38°02' E 023°32'0 0.0
2018-Jan-18 17:00N 38°02' E 023°32'0 0.0
2018-Jan-18 16:29N 38°02' E 023°32'0 0.0
2018-Jan-18 16:00N 38°02' E 023°32'0 0.0
2018-Jan-18 15:30N 38°02' E 023°32'0 0.0
2018-Jan-18 15:00N 38°02' E 023°32'0 0.0
2018-Jan-18 14:31N 38°02' E 023°32'0 0.0
2018-Jan-18 14:00N 38°02' E 023°32'0 0.0
2018-Jan-18 13:30N 38°02' E 023°32'0 0.0
2018-Jan-18 13:01N 38°02' E 023°32'0 0.0
2018-Jan-18 12:30N 38°02' E 023°32'0 0.0
2018-Jan-18 12:00N 38°02' E 023°32'0 0.0
2018-Jan-18 11:30N 38°02' E 023°32'0 0.0
2018-Jan-18 11:00N 38°02' E 023°32'0 0.0
2018-Jan-18 10:30N 38°02' E 023°32'0 0.0
2018-Jan-18 10:00N 38°02' E 023°32'0 0.0
2018-Jan-18 09:30N 38°02' E 023°32'0 0.0
2018-Jan-18 09:00N 38°02' E 023°32'0 0.0
2018-Jan-18 08:30N 38°02' E 023°32'0 0.0
2018-Jan-18 08:00N 38°02' E 023°32'0 0.0
2018-Jan-18 07:30N 38°02' E 023°32'0 0.0
2018-Jan-18 07:00N 38°02' E 023°32'0 0.0
2018-Jan-18 06:30N 38°02' E 023°32'1 1.1
2018-Jan-18 06:01N 38°02' E 023°32'1 1.5
2018-Jan-18 05:31N 38°02' E 023°31'2 3.2
2018-Jan-18 05:00N 38°01' E 023°29'0 0.7
2018-Jan-18 04:31N 38°01' E 023°29'1 1.4
2018-Jan-18 04:00N 38°01' E 023°29'0 0.8
2018-Jan-18 03:30N 38°01' E 023°29'1 1.1
2018-Jan-18 03:01N 38°01' E 023°28'1 1.0
2018-Jan-18 02:31N 38°00' E 023°28'0 0.2
2018-Jan-18 02:01N 38°00' E 023°28'2 3.3
2018-Jan-18 01:30N 38°01' E 023°30'1 3.0
2018-Jan-18 01:00N 38°02' E 023°31'1 0.7
2018-Jan-18 00:00N 38°02' E 023°31'0 0.4
2018-Jan-17 23:57N 38°02' E 023°31'  
2018-Jan-12 00:09N 38°07' E 022°37'2 8.5
2018-Jan-11 23:55N 38°06' E 022°39'4 8.7
2018-Jan-11 23:30N 38°04' E 022°43'4 8.7
2018-Jan-11 23:01N 38°02' E 022°48'4 7.2
2018-Jan-11 22:30N 37°60' E 022°52'3 7.1
2018-Jan-11 22:01N 37°58' E 022°56'5 5.4
2018-Jan-11 21:11N 37°55' E 023°00'1 5.4
2018-Jan-11 21:00N 37°55' E 023°01'4 8.3
2018-Jan-11 20:31N 37°54' E 023°06'5 9.1
2018-Jan-11 20:01N 37°55' E 023°12'5 9.2
2018-Jan-11 19:31N 37°56' E 023°18'5 9.1
2018-Jan-11 19:01N 37°57' E 023°23'3 6.5
2018-Jan-11 18:31N 37°60' E 023°25'5 9.1
2018-Jan-11 18:01N 38°02' E 023°30'1 2.7
2018-Jan-11 17:31N 38°02' E 023°32'0 0.0
2018-Jan-11 17:01N 38°02' E 023°32'0 0.0
2018-Jan-11 16:31N 38°02' E 023°32'0 0.0
2018-Jan-11 16:00N 38°02' E 023°32'0 0.0
2018-Jan-11 15:30N 38°02' E 023°32'0 0.0
2018-Jan-11 15:00N 38°02' E 023°32'0 0.0
2018-Jan-11 14:30N 38°02' E 023°32'1 2.1
2018-Jan-11 14:00N 38°02' E 023°31'0 0.1
2018-Jan-11 13:30N 38°02' E 023°31'0 0.0
2018-Jan-11 13:01N 38°02' E 023°31'0 0.0
2018-Jan-11 12:30N 38°02' E 023°31'0 0.0
2018-Jan-11 12:00N 38°02' E 023°31'0 0.0
2018-Jan-11 11:30N 38°02' E 023°31'0 0.0
2018-Jan-11 11:01N 38°02' E 023°31'0 0.0
2018-Jan-11 10:30N 38°02' E 023°31'0 0.0
2018-Jan-11 09:59N 38°02' E 023°31'0 0.0
2018-Jan-11 09:30N 38°02' E 023°31'0 0.0
2018-Jan-11 09:01N 38°02' E 023°31'0 0.0
2018-Jan-11 08:31N 38°02' E 023°31'0 0.0
2018-Jan-11 07:59N 38°02' E 023°31'0 0.0
2018-Jan-11 07:31N 38°02' E 023°31'0 0.0
2018-Jan-11 07:00N 38°02' E 023°31'0 0.0
2018-Jan-11 06:30N 38°02' E 023°31'0 0.0
2018-Jan-11 06:01N 38°02' E 023°31'0 0.0
2018-Jan-11 05:30N 38°02' E 023°31'0 0.0
2018-Jan-11 05:00N 38°02' E 023°31'0 0.0
2018-Jan-11 04:30N 38°02' E 023°31'0 0.0
2018-Jan-11 04:00N 38°02' E 023°31'0 0.0
2018-Jan-11 03:31N 38°02' E 023°31'0 0.0
2018-Jan-11 03:00N 38°02' E 023°31'0 0.1
2018-Jan-11 02:31N 38°02' E 023°31'4 7.1
2018-Jan-11 02:01N 38°02' E 023°35'0 0.9
2018-Jan-11 01:30N 38°02' E 023°36'0 0.0
2018-Jan-11 01:01N 38°02' E 023°36'0 0.0
2018-Jan-11 00:30N 38°02' E 023°36'0 0.0
2018-Jan-11 00:00N 38°02' E 023°36'0 0.0
2018-Jan-10 23:30N 38°02' E 023°36'0 0.0
2018-Jan-10 23:01N 38°02' E 023°36'0 0.0
2018-Jan-10 22:30N 38°02' E 023°36'0 0.0
2018-Jan-10 22:00N 38°02' E 023°36'0 0.1
2018-Jan-10 21:30N 38°02' E 023°36'0 0.7
2018-Jan-10 21:00N 38°02' E 023°35'0 0.0
2018-Jan-10 20:30N 38°02' E 023°35'0 0.1
2018-Jan-10 20:01N 38°02' E 023°35'0 0.1
2018-Jan-10 19:30N 38°02' E 023°35'0 0.0
2018-Jan-10 18:39N 38°02' E 023°35'0 0.1
2018-Jan-10 18:24N 38°02' E 023°35'0 0.0
2018-Jan-10 18:00N 38°02' E 023°35'0 0.0
2018-Jan-10 17:30N 38°02' E 023°35'0 0.0
2018-Jan-10 17:01N 38°02' E 023°35'0 0.1
2018-Jan-10 16:30N 38°02' E 023°35'0 0.1
2018-Jan-10 16:00N 38°02' E 023°35'0 0.1
2018-Jan-10 15:30N 38°02' E 023°35'0 0.0
2018-Jan-10 15:01N 38°02' E 023°35'0 0.0
2018-Jan-10 14:30N 38°02' E 023°35'0 0.0
2018-Jan-10 14:00N 38°02' E 023°35'0 0.0
2018-Jan-10 13:30N 38°02' E 023°35'0 0.0
2018-Jan-10 13:00N 38°02' E 023°35'0 0.0
2018-Jan-10 12:30N 38°02' E 023°35'0 0.0
2018-Jan-10 12:00N 38°02' E 023°35'0 0.0
2018-Jan-10 11:31N 38°02' E 023°35'0 0.0
2018-Jan-10 11:01N 38°02' E 023°35'0 0.1
2018-Jan-10 10:31N 38°02' E 023°35'0 0.0
2018-Jan-10 10:01N 38°02' E 023°35'0 0.0
2018-Jan-10 09:30N 38°02' E 023°35'0 0.1
2018-Jan-10 09:01N 38°02' E 023°35'0 0.0
2018-Jan-10 08:31N 38°02' E 023°35'3 5.1
2018-Jan-10 08:01N 38°02' E 023°32'0 0.0
2018-Jan-10 07:31N 38°02' E 023°32'0 0.0
2018-Jan-10 07:00N 38°02' E 023°32'0 0.0
2018-Jan-10 06:31N 38°02' E 023°32'0 0.0
2018-Jan-10 06:01N 38°02' E 023°32'0 0.0
2018-Jan-10 05:31N 38°02' E 023°32'0 0.0
2018-Jan-10 05:01N 38°02' E 023°32'0 0.0
2018-Jan-10 04:31N 38°02' E 023°32'0 0.0
2018-Jan-10 04:01N 38°02' E 023°32'0 0.0
2018-Jan-10 03:31N 38°02' E 023°32'0 0.0
2018-Jan-10 03:01N 38°02' E 023°32'0 0.0
2018-Jan-10 02:30N 38°02' E 023°32'0 0.0
2018-Jan-10 02:00N 38°02' E 023°32'0 0.0
2018-Jan-10 01:30N 38°02' E 023°32'0 0.0
2018-Jan-10 01:00N 38°02' E 023°32'0 0.0
2018-Jan-10 00:30N 38°02' E 023°32'0 0.0
2018-Jan-10 00:01N 38°02' E 023°32'0 0.0
2018-Jan-09 23:31N 38°02' E 023°32'0 0.0
2018-Jan-09 23:01N 38°02' E 023°32'0 0.0
2018-Jan-09 22:31N 38°02' E 023°32'0 0.0
2018-Jan-09 22:00N 38°02' E 023°32'0 0.0
2018-Jan-09 21:31N 38°02' E 023°32'0 0.0
2018-Jan-09 21:00N 38°02' E 023°32'0 0.0
2018-Jan-09 20:31N 38°02' E 023°32'0 0.0
2018-Jan-09 20:01N 38°02' E 023°32'0 0.0
2018-Jan-09 19:30N 38°02' E 023°32'0 0.0
2018-Jan-09 19:01N 38°02' E 023°32'0 0.0
2018-Jan-09 18:31N 38°02' E 023°32'0 0.0
2018-Jan-09 18:00N 38°02' E 023°32'0 0.0
2018-Jan-09 17:30N 38°02' E 023°32'0 0.0
2018-Jan-09 17:01N 38°02' E 023°32'0 0.0
2018-Jan-09 16:31N 38°02' E 023°32'0 0.0
2018-Jan-09 16:01N 38°02' E 023°32'0 0.0
2018-Jan-09 15:31N 38°02' E 023°32'0 0.0
2018-Jan-09 15:00N 38°02' E 023°32'0 0.0
2018-Jan-09 14:30N 38°02' E 023°32'0 0.0
2018-Jan-09 14:00N 38°02' E 023°32'0 0.0
2018-Jan-09 13:31N 38°02' E 023°32'0 0.0
2018-Jan-09 13:00N 38°02' E 023°32'0 0.0
2018-Jan-09 12:31N 38°02' E 023°32'0 0.0
2018-Jan-09 12:00N 38°02' E 023°32'0 0.0
2018-Jan-09 11:30N 38°02' E 023°32'0 0.0
2018-Jan-09 11:00N 38°02' E 023°32'0 0.0
2018-Jan-09 10:30N 38°02' E 023°32'0 0.0
2018-Jan-09 10:01N 38°02' E 023°32'0 0.0
2018-Jan-09 09:31N 38°02' E 023°32'0 0.0
2018-Jan-09 09:00N 38°02' E 023°32'0 0.0
2018-Jan-09 08:30N 38°02' E 023°32'0 0.0
2018-Jan-09 08:01N 38°02' E 023°32'0 0.0
2018-Jan-09 07:31N 38°02' E 023°32'0 0.0
2018-Jan-09 07:01N 38°02' E 023°32'0 0.0
2018-Jan-09 06:30N 38°02' E 023°32'0 0.0
2018-Jan-09 06:01N 38°02' E 023°32'0 0.0
2018-Jan-09 05:30N 38°02' E 023°32'0 0.0
2018-Jan-09 05:00N 38°02' E 023°32'0 0.0
2018-Jan-09 04:30N 38°02' E 023°32'0 0.0
2018-Jan-09 04:00N 38°02' E 023°32'0 0.0
2018-Jan-09 03:31N 38°02' E 023°32'0 0.0
2018-Jan-09 03:01N 38°02' E 023°32'0 0.0
2018-Jan-09 02:30N 38°02' E 023°32'0 0.0
2018-Jan-09 02:01N 38°02' E 023°32'0 0.0
2018-Jan-09 01:30N 38°02' E 023°32'0 0.0
2018-Jan-09 01:00N 38°02' E 023°32'  
Track history (hours):
 
Tides and Currents Weather Stations Pressure Air Temp Water Temp Dewpoint Dewpoint Depression Visibility Wind Speed Wind Dir Waves Ship Positions

Aegean III

Last reported at 2018-Jan-19 00:59 UTC. Time now 2018-Jan-22 18:26 UTC.
Position N 38°06' E 022°41'.

Length 80 m; draft 5.6 m.

Type: Tanker. MMSI: 240708000.

Date/timePositionNaut miles runAvg speedWind from/ knotsBaromVisibWave heightAir tempDewpointWater temp
2018-Jan-19 00:59N 38°06' E 022°41'4 7.6
2018-Jan-19 00:30N 38°04' E 022°45'4 8.2
2018-Jan-19 00:00N 38°01' E 022°49'4 8.3
2018-Jan-18 23:30N 37°59' E 022°54'4 7.6
2018-Jan-18 23:00N 37°57' E 022°58'2 4.5
2018-Jan-18 22:29N 37°55' E 023°00'3 5.4
2018-Jan-18 22:00N 37°54' E 023°03'4 8.4
2018-Jan-18 21:30N 37°54' E 023°08'4 8.5
2018-Jan-18 21:00N 37°55' E 023°13'4 8.6
2018-Jan-18 20:30N 37°56' E 023°19'4 8.4
2018-Jan-18 20:00N 37°57' E 023°24'3 6.1
2018-Jan-18 19:30N 37°60' E 023°25'4 8.7
2018-Jan-18 19:00N 38°02' E 023°30'1 2.3
2018-Jan-18 18:24N 38°02' E 023°32'0 0.0
2018-Jan-18 18:00N 38°02' E 023°32'0 0.0
2018-Jan-18 17:30N 38°02' E 023°32'0 0.0
2018-Jan-18 17:00N 38°02' E 023°32'0 0.0
2018-Jan-18 16:29N 38°02' E 023°32'0 0.0
2018-Jan-18 16:00N 38°02' E 023°32'0 0.0
2018-Jan-18 15:30N 38°02' E 023°32'0 0.0
2018-Jan-18 15:00N 38°02' E 023°32'0 0.0
2018-Jan-18 14:31N 38°02' E 023°32'0 0.0
2018-Jan-18 14:00N 38°02' E 023°32'0 0.0
2018-Jan-18 13:30N 38°02' E 023°32'0 0.0
2018-Jan-18 13:01N 38°02' E 023°32'0 0.0
2018-Jan-18 12:30N 38°02' E 023°32'0 0.0
2018-Jan-18 12:00N 38°02' E 023°32'0 0.0
2018-Jan-18 11:30N 38°02' E 023°32'0 0.0
2018-Jan-18 11:00N 38°02' E 023°32'0 0.0
2018-Jan-18 10:30N 38°02' E 023°32'0 0.0
2018-Jan-18 10:00N 38°02' E 023°32'0 0.0
2018-Jan-18 09:30N 38°02' E 023°32'0 0.0
2018-Jan-18 09:00N 38°02' E 023°32'0 0.0
2018-Jan-18 08:30N 38°02' E 023°32'0 0.0
2018-Jan-18 08:00N 38°02' E 023°32'0 0.0
2018-Jan-18 07:30N 38°02' E 023°32'0 0.0
2018-Jan-18 07:00N 38°02' E 023°32'0 0.0
2018-Jan-18 06:30N 38°02' E 023°32'1 1.1
2018-Jan-18 06:01N 38°02' E 023°32'1 1.5
2018-Jan-18 05:31N 38°02' E 023°31'2 3.2
2018-Jan-18 05:00N 38°01' E 023°29'0 0.7
2018-Jan-18 04:31N 38°01' E 023°29'1 1.4
2018-Jan-18 04:00N 38°01' E 023°29'0 0.8
2018-Jan-18 03:30N 38°01' E 023°29'1 1.1
2018-Jan-18 03:01N 38°01' E 023°28'1 1.0
2018-Jan-18 02:31N 38°00' E 023°28'0 0.2
2018-Jan-18 02:01N 38°00' E 023°28'2 3.3
2018-Jan-18 01:30N 38°01' E 023°30'1 3.0
2018-Jan-18 01:00N 38°02' E 023°31'1 0.7
2018-Jan-18 00:00N 38°02' E 023°31'0 0.4
2018-Jan-17 23:57N 38°02' E 023°31'  
2018-Jan-12 00:09N 38°07' E 022°37'2 8.5
2018-Jan-11 23:55N 38°06' E 022°39'4 8.7
2018-Jan-11 23:30N 38°04' E 022°43'4 8.7
2018-Jan-11 23:01N 38°02' E 022°48'4 7.2
2018-Jan-11 22:30N 37°60' E 022°52'3 7.1
2018-Jan-11 22:01N 37°58' E 022°56'5 5.4
2018-Jan-11 21:11N 37°55' E 023°00'1 5.4
2018-Jan-11 21:00N 37°55' E 023°01'4 8.3
2018-Jan-11 20:31N 37°54' E 023°06'5 9.1
2018-Jan-11 20:01N 37°55' E 023°12'5 9.2
2018-Jan-11 19:31N 37°56' E 023°18'5 9.1
2018-Jan-11 19:01N 37°57' E 023°23'3 6.5
2018-Jan-11 18:31N 37°60' E 023°25'5 9.1
2018-Jan-11 18:01N 38°02' E 023°30'1 2.7
2018-Jan-11 17:31N 38°02' E 023°32'0 0.0
2018-Jan-11 17:01N 38°02' E 023°32'0 0.0
2018-Jan-11 16:31N 38°02' E 023°32'0 0.0
2018-Jan-11 16:00N 38°02' E 023°32'0 0.0
2018-Jan-11 15:30N 38°02' E 023°32'0 0.0
2018-Jan-11 15:00N 38°02' E 023°32'0 0.0
2018-Jan-11 14:30N 38°02' E 023°32'1 2.1
2018-Jan-11 14:00N 38°02' E 023°31'0 0.1
2018-Jan-11 13:30N 38°02' E 023°31'0 0.0
2018-Jan-11 13:01N 38°02' E 023°31'0 0.0
2018-Jan-11 12:30N 38°02' E 023°31'0 0.0
2018-Jan-11 12:00N 38°02' E 023°31'0 0.0
2018-Jan-11 11:30N 38°02' E 023°31'0 0.0
2018-Jan-11 11:01N 38°02' E 023°31'0 0.0
2018-Jan-11 10:30N 38°02' E 023°31'0 0.0
2018-Jan-11 09:59N 38°02' E 023°31'0 0.0
2018-Jan-11 09:30N 38°02' E 023°31'0 0.0
2018-Jan-11 09:01N 38°02' E 023°31'0 0.0
2018-Jan-11 08:31N 38°02' E 023°31'0 0.0
2018-Jan-11 07:59N 38°02' E 023°31'0 0.0
2018-Jan-11 07:31N 38°02' E 023°31'0 0.0
2018-Jan-11 07:00N 38°02' E 023°31'0 0.0
2018-Jan-11 06:30N 38°02' E 023°31'0 0.0
2018-Jan-11 06:01N 38°02' E 023°31'0 0.0
2018-Jan-11 05:30N 38°02' E 023°31'0 0.0
2018-Jan-11 05:00N 38°02' E 023°31'0 0.0
2018-Jan-11 04:30N 38°02' E 023°31'0 0.0
2018-Jan-11 04:00N 38°02' E 023°31'0 0.0
2018-Jan-11 03:31N 38°02' E 023°31'0 0.0
2018-Jan-11 03:00N 38°02' E 023°31'0 0.1
2018-Jan-11 02:31N 38°02' E 023°31'4 7.1
2018-Jan-11 02:01N 38°02' E 023°35'0 0.9
2018-Jan-11 01:30N 38°02' E 023°36'0 0.0
2018-Jan-11 01:01N 38°02' E 023°36'0 0.0
2018-Jan-11 00:30N 38°02' E 023°36'0 0.0
2018-Jan-11 00:00N 38°02' E 023°36'0 0.0
2018-Jan-10 23:30N 38°02' E 023°36'0 0.0
2018-Jan-10 23:01N 38°02' E 023°36'0 0.0
2018-Jan-10 22:30N 38°02' E 023°36'0 0.0
2018-Jan-10 22:00N 38°02' E 023°36'0 0.1
2018-Jan-10 21:30N 38°02' E 023°36'0 0.7
2018-Jan-10 21:00N 38°02' E 023°35'0 0.0
2018-Jan-10 20:30N 38°02' E 023°35'0 0.1
2018-Jan-10 20:01N 38°02' E 023°35'0 0.1
2018-Jan-10 19:30N 38°02' E 023°35'0 0.0
2018-Jan-10 18:39N 38°02' E 023°35'0 0.1
2018-Jan-10 18:24N 38°02' E 023°35'0 0.0
2018-Jan-10 18:00N 38°02' E 023°35'0 0.0
2018-Jan-10 17:30N 38°02' E 023°35'0 0.0
2018-Jan-10 17:01N 38°02' E 023°35'0 0.1
2018-Jan-10 16:30N 38°02' E 023°35'0 0.1
2018-Jan-10 16:00N 38°02' E 023°35'0 0.1
2018-Jan-10 15:30N 38°02' E 023°35'0 0.0
2018-Jan-10 15:01N 38°02' E 023°35'0 0.0
2018-Jan-10 14:30N 38°02' E 023°35'0 0.0
2018-Jan-10 14:00N 38°02' E 023°35'0 0.0
2018-Jan-10 13:30N 38°02' E 023°35'0 0.0
2018-Jan-10 13:00N 38°02' E 023°35'0 0.0
2018-Jan-10 12:30N 38°02' E 023°35'0 0.0
2018-Jan-10 12:00N 38°02' E 023°35'0 0.0
2018-Jan-10 11:31N 38°02' E 023°35'0 0.0
2018-Jan-10 11:01N 38°02' E 023°35'0 0.1
2018-Jan-10 10:31N 38°02' E 023°35'0 0.0
2018-Jan-10 10:01N 38°02' E 023°35'0 0.0
2018-Jan-10 09:30N 38°02' E 023°35'0 0.1
2018-Jan-10 09:01N 38°02' E 023°35'0 0.0
2018-Jan-10 08:31N 38°02' E 023°35'3 5.1
2018-Jan-10 08:01N 38°02' E 023°32'0 0.0
2018-Jan-10 07:31N 38°02' E 023°32'0 0.0
2018-Jan-10 07:00N 38°02' E 023°32'0 0.0
2018-Jan-10 06:31N 38°02' E 023°32'0 0.0
2018-Jan-10 06:01N 38°02' E 023°32'0 0.0
2018-Jan-10 05:31N 38°02' E 023°32'0 0.0
2018-Jan-10 05:01N 38°02' E 023°32'0 0.0
2018-Jan-10 04:31N 38°02' E 023°32'0 0.0
2018-Jan-10 04:01N 38°02' E 023°32'0 0.0
2018-Jan-10 03:31N 38°02' E 023°32'0 0.0
2018-Jan-10 03:01N 38°02' E 023°32'0 0.0
2018-Jan-10 02:30N 38°02' E 023°32'0 0.0
2018-Jan-10 02:00N 38°02' E 023°32'0 0.0
2018-Jan-10 01:30N 38°02' E 023°32'0 0.0
2018-Jan-10 01:00N 38°02' E 023°32'0 0.0
2018-Jan-10 00:30N 38°02' E 023°32'0 0.0
2018-Jan-10 00:01N 38°02' E 023°32'0 0.0
2018-Jan-09 23:31N 38°02' E 023°32'0 0.0
2018-Jan-09 23:01N 38°02' E 023°32'0 0.0
2018-Jan-09 22:31N 38°02' E 023°32'0 0.0
2018-Jan-09 22:00N 38°02' E 023°32'0 0.0
2018-Jan-09 21:31N 38°02' E 023°32'0 0.0
2018-Jan-09 21:00N 38°02' E 023°32'0 0.0
2018-Jan-09 20:31N 38°02' E 023°32'0 0.0
2018-Jan-09 20:01N 38°02' E 023°32'0 0.0
2018-Jan-09 19:30N 38°02' E 023°32'0 0.0
2018-Jan-09 19:01N 38°02' E 023°32'0 0.0
2018-Jan-09 18:31N 38°02' E 023°32'0 0.0
2018-Jan-09 18:00N 38°02' E 023°32'0 0.0
2018-Jan-09 17:30N 38°02' E 023°32'0 0.0
2018-Jan-09 17:01N 38°02' E 023°32'0 0.0
2018-Jan-09 16:31N 38°02' E 023°32'0 0.0
2018-Jan-09 16:01N 38°02' E 023°32'0 0.0
2018-Jan-09 15:31N 38°02' E 023°32'0 0.0
2018-Jan-09 15:00N 38°02' E 023°32'0 0.0
2018-Jan-09 14:30N 38°02' E 023°32'0 0.0
2018-Jan-09 14:00N 38°02' E 023°32'0 0.0
2018-Jan-09 13:31N 38°02' E 023°32'0 0.0
2018-Jan-09 13:00N 38°02' E 023°32'0 0.0
2018-Jan-09 12:31N 38°02' E 023°32'0 0.0
2018-Jan-09 12:00N 38°02' E 023°32'0 0.0
2018-Jan-09 11:30N 38°02' E 023°32'0 0.0
2018-Jan-09 11:00N 38°02' E 023°32'0 0.0
2018-Jan-09 10:30N 38°02' E 023°32'0 0.0
2018-Jan-09 10:01N 38°02' E 023°32'0 0.0
2018-Jan-09 09:31N 38°02' E 023°32'0 0.0
2018-Jan-09 09:00N 38°02' E 023°32'0 0.0
2018-Jan-09 08:30N 38°02' E 023°32'0 0.0
2018-Jan-09 08:01N 38°02' E 023°32'0 0.0
2018-Jan-09 07:31N 38°02' E 023°32'0 0.0
2018-Jan-09 07:01N 38°02' E 023°32'0 0.0
2018-Jan-09 06:30N 38°02' E 023°32'0 0.0
2018-Jan-09 06:01N 38°02' E 023°32'0 0.0
2018-Jan-09 05:30N 38°02' E 023°32'0 0.0
2018-Jan-09 05:00N 38°02' E 023°32'0 0.0
2018-Jan-09 04:30N 38°02' E 023°32'0 0.0
2018-Jan-09 04:00N 38°02' E 023°32'0 0.0
2018-Jan-09 03:31N 38°02' E 023°32'0 0.0
2018-Jan-09 03:01N 38°02' E 023°32'0 0.0
2018-Jan-09 02:30N 38°02' E 023°32'0 0.0
2018-Jan-09 02:01N 38°02' E 023°32'0 0.0
2018-Jan-09 01:30N 38°02' E 023°32'0 0.0
2018-Jan-09 01:00N 38°02' E 023°32'  

Dump ship's entire track history